WALL/BPN METAR and TAF weather

Enter ICAO airport designator
Station Type Date Time Source
WALL METAR 2021/09/24 02:00 UTC NOAA

WALL 240200Z 22004KT 9999 FEW018CB SCT018 28/26 Q1012 RMK CB TO W


Station Type Date Time Source
WALL Decoded METAR 2021/09/24 02:00 UTC NOAA

Station name not available
Sep 23, 2021 - 10:00 PM EDT / 2021.09.24 0200 UTC
Wind: from the SW (220 degrees) at 5 MPH (4 KT):0
Visibility: greater than 7 mile(s):0
Sky conditions: partly cloudy
Weather: Cumulonimbus clouds observed
Temperature: 82 F (28 C)
Dew Point: 78 F (26 C)
Relative Humidity: 88%
Pressure (altimeter): 29.88 in. Hg (1012 hPa)
ob: WALL 240200Z 22004KT 9999 FEW018CB SCT018 28/26 Q1012 RMK CB TO W
cycle: 2

Station Type Date Time Source
WALL TAF 2021/09/23 18:30 UTC NOAA

TAF
AMD WALL 231730Z 2318/2424 25003KT 9000 SCT020 REMPO 2318/2321 5000 -TSRA FEW015CB

Example: see airport list